createdAt,value
2022-10-25T00:04:36.513Z,13.00
2022-10-25T00:09:38.355Z,11.70
2022-10-25T00:14:40.230Z,12.00
2022-10-25T00:19:42.037Z,11.90
2022-10-25T00:24:43.809Z,10.70
2022-10-25T00:29:45.655Z,11.20
2022-10-25T00:34:47.909Z,10.00
2022-10-25T00:39:49.660Z,11.20
2022-10-25T00:44:57.686Z,11.60
2022-10-25T00:50:05.836Z,10.10
2022-10-25T00:55:10.050Z,10.30
2022-10-25T01:00:12.464Z,10.70
2022-10-25T01:05:17.008Z,10.60
2022-10-25T01:10:19.085Z,9.50
2022-10-25T01:15:28.796Z,10.90
2022-10-25T01:20:58.189Z,10.10
2022-10-25T01:26:21.904Z,11.00
2022-10-25T01:31:41.715Z,12.20
2022-10-25T01:36:57.219Z,11.40
2022-10-25T01:42:06.069Z,11.90
2022-10-25T01:47:19.095Z,11.10
2022-10-25T01:52:22.988Z,11.80
2022-10-25T01:57:32.917Z,11.20
2022-10-25T02:03:09.353Z,10.70
2022-10-25T02:08:36.175Z,11.40
2022-10-25T02:13:57.073Z,10.80
2022-10-25T02:19:02.479Z,11.10
2022-10-25T02:24:28.042Z,11.10
2022-10-25T02:29:32.130Z,10.80
2022-10-25T02:34:34.425Z,12.50
2022-10-25T02:39:36.487Z,10.90
2022-10-25T02:44:38.305Z,9.10
2022-10-25T02:49:40.088Z,11.40
2022-10-25T02:54:41.907Z,12.50
2022-10-25T02:59:43.758Z,13.50
2022-10-25T03:04:45.575Z,11.70
2022-10-25T03:09:47.708Z,11.70
2022-10-25T03:14:49.487Z,11.90
2022-10-25T03:19:51.249Z,12.10
2022-10-25T03:24:53.026Z,13.40
2022-10-25T03:29:54.907Z,14.20
2022-10-25T03:34:56.621Z,15.20
2022-10-25T03:39:58.540Z,16.20
2022-10-25T03:45:00.332Z,15.60
2022-10-25T03:50:02.343Z,14.70
2022-10-25T03:55:04.725Z,17.90
2022-10-25T04:00:08.305Z,15.50
2022-10-25T04:05:16.062Z,15.70
2022-10-25T04:10:19.573Z,15.00
2022-10-25T04:15:22.022Z,15.40
2022-10-25T04:20:23.960Z,17.10
2022-10-25T04:25:27.598Z,15.60
2022-10-25T04:30:29.587Z,15.10
2022-10-25T04:35:31.314Z,16.30
2022-10-25T04:40:33.139Z,16.70
2022-10-25T04:45:34.905Z,17.20
2022-10-25T04:50:38.313Z,19.60
2022-10-25T04:55:40.094Z,18.70
2022-10-25T05:00:41.930Z,19.00
2022-10-25T05:05:43.742Z,17.10
2022-10-25T05:10:53.877Z,16.10
2022-10-25T05:15:57.085Z,13.30
2022-10-25T05:21:01.514Z,15.40
2022-10-25T05:26:10.372Z,15.00
2022-10-25T05:31:15.884Z,16.30
2022-10-25T05:36:19.147Z,16.80
2022-10-25T05:41:21.572Z,16.30
2022-10-25T05:46:23.857Z,15.40
2022-10-25T05:51:34.732Z,15.20
2022-10-25T05:56:39.000Z,14.90
2022-10-25T06:01:45.679Z,14.90
2022-10-25T06:06:47.831Z,20.60
2022-10-25T06:11:49.725Z,13.90
2022-10-25T06:16:51.531Z,14.40
2022-10-25T06:21:55.052Z,15.70
2022-10-25T06:26:56.949Z,15.20
2022-10-25T06:31:58.981Z,15.70
2022-10-25T06:37:00.777Z,13.10
2022-10-25T06:42:02.536Z,13.00
2022-10-25T06:47:17.023Z,13.00
2022-10-25T06:52:19.695Z,12.40
2022-10-25T06:57:21.447Z,11.90
2022-10-25T07:02:23.535Z,12.40
2022-10-25T07:07:25.652Z,12.90
2022-10-25T07:12:27.409Z,13.90
2022-10-25T07:17:29.191Z,12.90
2022-10-25T07:22:31.005Z,12.90
2022-10-25T07:27:33.459Z,12.10
2022-10-25T07:32:38.819Z,11.00
2022-10-25T07:37:43.503Z,12.60
2022-10-25T07:42:45.286Z,11.20
2022-10-25T07:47:50.630Z,10.60
2022-10-25T07:52:52.745Z,9.90
2022-10-25T07:58:03.916Z,9.30
2022-10-25T08:03:05.749Z,8.20
2022-10-25T08:08:07.536Z,8.50
2022-10-25T08:13:09.552Z,7.80
2022-10-25T08:18:11.269Z,9.40
2022-10-25T08:23:13.110Z,9.00
2022-10-25T08:28:15.451Z,10.10
2022-10-25T08:33:17.286Z,11.20
2022-10-25T08:38:19.170Z,11.00
2022-10-25T08:43:41.245Z,11.00
2022-10-25T08:48:48.997Z,10.90
2022-10-25T08:59:02.409Z,13.50
2022-10-25T09:04:04.348Z,10.00
2022-10-25T09:09:28.473Z,9.80
2022-10-25T09:14:30.233Z,9.20
2022-10-25T09:19:36.135Z,8.70
2022-10-25T09:24:56.851Z,9.00
2022-10-25T09:30:07.955Z,9.40
2022-10-25T09:35:23.017Z,8.50
2022-10-25T09:40:33.957Z,8.70
2022-10-25T09:45:49.253Z,8.40
2022-10-25T09:50:57.523Z,6.60
2022-10-25T09:56:01.350Z,5.20
2022-10-25T10:01:17.727Z,5.10
2022-10-25T10:06:40.354Z,4.70
2022-10-25T10:11:44.320Z,4.80
2022-10-25T10:16:50.119Z,4.70
2022-10-25T10:21:56.596Z,5.10
2022-10-25T10:27:00.888Z,5.60
2022-10-25T10:32:22.600Z,6.20
2022-10-25T10:37:26.873Z,4.90
2022-10-25T10:47:51.447Z,7.10
2022-10-25T10:52:55.251Z,4.70
2022-10-25T10:58:07.122Z,4.20
2022-10-25T11:03:48.790Z,5.70
2022-10-25T11:09:23.616Z,5.10
2022-10-25T11:14:25.372Z,5.00
2022-10-25T11:19:55.957Z,4.20
2022-10-25T11:25:13.256Z,4.70
2022-10-25T11:30:20.009Z,3.70
2022-10-25T11:35:40.414Z,3.70
2022-10-25T11:41:20.584Z,3.20
2022-10-25T11:46:43.896Z,3.70
2022-10-25T11:57:48.224Z,1.90
2022-10-25T12:02:56.284Z,2.80
2022-10-25T12:08:14.787Z,2.10
2022-10-25T12:13:26.603Z,2.50
2022-10-25T12:18:36.948Z,2.70
2022-10-25T12:23:46.936Z,2.70
2022-10-25T12:28:50.323Z,2.90
2022-10-25T12:34:17.137Z,3.30
2022-10-25T12:39:38.623Z,2.70
2022-10-25T12:45:02.142Z,3.10
2022-10-25T12:50:23.108Z,4.00
2022-10-25T12:55:34.188Z,3.20
2022-10-25T13:00:46.962Z,2.90
2022-10-25T13:06:10.168Z,3.10
2022-10-25T13:11:12.652Z,4.80
2022-10-25T13:16:27.143Z,3.10
2022-10-25T13:21:53.709Z,2.40
2022-10-25T13:27:13.855Z,2.40
2022-10-25T13:32:21.671Z,2.30
2022-10-25T13:37:32.600Z,2.30
2022-10-25T13:42:38.306Z,3.10
2022-10-25T13:47:49.434Z,2.10
2022-10-25T13:53:03.357Z,2.50
2022-10-25T13:58:32.292Z,1.80
2022-10-25T14:03:52.012Z,1.70
2022-10-25T14:09:08.588Z,2.10
2022-10-25T14:14:19.620Z,2.30
2022-10-25T14:19:37.482Z,2.30
2022-10-25T14:24:42.331Z,2.20
2022-10-25T14:29:44.106Z,2.70
2022-10-25T14:34:51.062Z,3.40
2022-10-25T14:39:53.960Z,5.10
2022-10-25T14:44:55.735Z,5.10
2022-10-25T14:49:59.353Z,5.80
2022-10-25T14:55:04.399Z,4.30
2022-10-25T15:00:06.880Z,3.70
2022-10-25T15:05:18.738Z,3.40
2022-10-25T15:10:35.959Z,3.50
2022-10-25T15:15:44.912Z,3.30
2022-10-25T15:20:50.105Z,3.70
2022-10-25T15:25:51.880Z,3.70
2022-10-25T15:30:54.255Z,4.40
2022-10-25T15:36:05.276Z,3.70
2022-10-25T15:41:08.624Z,3.40
2022-10-25T15:46:33.535Z,3.60
2022-10-25T15:51:39.130Z,4.50
2022-10-25T15:56:40.916Z,3.40
2022-10-25T16:01:45.745Z,4.50
2022-10-25T16:06:48.202Z,3.60
2022-10-25T16:11:54.258Z,3.50
2022-10-25T16:16:59.004Z,3.30
2022-10-25T16:22:00.763Z,3.90
2022-10-25T16:27:02.595Z,4.20
2022-10-25T16:32:05.482Z,3.90
2022-10-25T16:37:09.276Z,4.50
2022-10-25T16:42:27.363Z,4.50
2022-10-25T16:47:29.402Z,5.00
2022-10-25T16:52:31.185Z,4.90
2022-10-25T16:57:33.080Z,5.30
2022-10-25T17:02:34.840Z,9.10
2022-10-25T17:07:36.905Z,10.60
2022-10-25T17:12:50.428Z,11.10
2022-10-25T17:17:52.469Z,11.30
2022-10-25T17:22:54.683Z,20.10
2022-10-25T17:27:56.472Z,14.70
2022-10-25T17:32:58.244Z,11.90
2022-10-25T17:37:59.957Z,10.70
2022-10-25T17:43:01.732Z,11.10
2022-10-25T17:48:04.420Z,13.00
2022-10-25T17:53:06.335Z,12.40
2022-10-25T17:58:08.047Z,13.00
2022-10-25T18:03:09.893Z,15.70
2022-10-25T18:08:11.669Z,15.40
2022-10-25T18:13:13.361Z,14.90
2022-10-25T18:18:18.729Z,17.50
2022-10-25T18:23:20.535Z,15.00
2022-10-25T18:28:22.251Z,14.90
2022-10-25T18:33:25.272Z,14.00
2022-10-25T18:38:27.731Z,13.80
2022-10-25T18:43:29.448Z,14.70
2022-10-25T18:48:31.149Z,16.10
2022-10-25T18:53:35.577Z,15.90
2022-10-25T18:58:37.970Z,15.20
2022-10-25T19:03:41.097Z,15.80
2022-10-25T19:08:43.354Z,15.80
2022-10-25T19:13:48.906Z,14.70
2022-10-25T19:18:53.345Z,15.50
2022-10-25T19:23:55.322Z,12.20
2022-10-25T19:28:59.567Z,13.30
2022-10-25T19:34:03.377Z,13.30
2022-10-25T19:39:05.422Z,15.00
2022-10-25T19:44:07.343Z,14.90
2022-10-25T19:49:11.227Z,18.40
2022-10-25T19:54:13.085Z,19.10
2022-10-25T19:59:14.950Z,19.60
2022-10-25T20:04:17.111Z,18.80
2022-10-25T20:09:19.076Z,18.90
2022-10-25T20:14:20.892Z,20.00
2022-10-25T20:19:22.734Z,19.40
2022-10-25T20:24:25.045Z,16.70
2022-10-25T20:29:27.023Z,15.80
2022-10-25T20:34:28.805Z,17.70
2022-10-25T20:39:30.746Z,18.10
2022-10-25T20:44:32.492Z,17.10
2022-10-25T20:49:34.435Z,15.20
2022-10-25T20:54:36.144Z,12.70
2022-10-25T20:59:37.921Z,12.80
2022-10-25T21:04:53.391Z,13.50
2022-10-25T21:09:55.735Z,15.00
2022-10-25T21:15:06.871Z,16.30
2022-10-25T21:20:11.492Z,15.50
2022-10-25T21:25:14.301Z,15.50
2022-10-25T21:30:16.165Z,13.50
2022-10-25T21:35:18.300Z,14.00
2022-10-25T21:40:20.189Z,15.90
2022-10-25T21:45:21.905Z,15.20
2022-10-25T21:50:23.680Z,14.90
2022-10-25T21:55:25.468Z,15.60
2022-10-25T22:00:27.234Z,14.10
2022-10-25T22:05:29.156Z,13.30
2022-10-25T22:10:30.880Z,15.50
2022-10-25T22:15:32.635Z,15.90
2022-10-25T22:20:34.453Z,14.50
2022-10-25T22:25:36.249Z,14.60
2022-10-25T22:30:38.000Z,14.10
2022-10-25T22:35:39.736Z,14.50
2022-10-25T22:40:41.449Z,13.90
2022-10-25T22:45:43.192Z,15.10
2022-10-25T22:50:53.400Z,16.30
2022-10-25T22:56:01.783Z,14.60
2022-10-25T23:06:16.844Z,14.10
2022-10-25T23:11:21.271Z,13.90
2022-10-25T23:16:29.100Z,13.80
2022-10-25T23:21:31.217Z,12.80
2022-10-25T23:26:36.457Z,13.20
2022-10-25T23:31:40.049Z,12.60
2022-10-25T23:36:41.983Z,14.70
2022-10-25T23:41:44.160Z,13.10
2022-10-25T23:46:45.940Z,12.80
2022-10-25T23:51:47.791Z,14.20
2022-10-25T23:56:49.520Z,16.80
